createdAt,value
2019-02-27T00:01:17.586Z,63.15
2019-02-27T00:03:47.069Z,63.52
2019-02-27T00:06:16.590Z,63.36
2019-02-27T00:08:46.225Z,63.23
2019-02-27T00:11:15.854Z,63.23
2019-02-27T00:13:45.248Z,63.38
2019-02-27T00:16:14.583Z,63.38
2019-02-27T00:18:43.927Z,63.31
2019-02-27T00:21:13.539Z,63.06
2019-02-27T00:23:42.881Z,62.75
2019-02-27T00:26:12.567Z,62.79
2019-02-27T00:28:43.094Z,63.11
2019-02-27T00:31:12.735Z,63.38
2019-02-27T00:33:42.080Z,63.51
2019-02-27T00:36:12.224Z,63.68
2019-02-27T00:38:42.612Z,63.76
2019-02-27T00:41:12.972Z,63.95
2019-02-27T00:43:42.660Z,64.13
2019-02-27T00:46:13.313Z,64.29
2019-02-27T00:48:44.681Z,64.54
2019-02-27T00:51:14.296Z,64.71
2019-02-27T00:53:44.173Z,64.76
2019-02-27T00:56:14.041Z,64.84
2019-02-27T00:58:43.954Z,64.98
2019-02-27T01:01:13.674Z,65.28
2019-02-27T01:03:43.095Z,65.38
2019-02-27T01:06:14.809Z,65.53
2019-02-27T01:08:44.246Z,65.71
2019-02-27T01:11:18.108Z,65.79
2019-02-27T01:13:45.316Z,66.09
2019-02-27T01:16:17.338Z,66.05
2019-02-27T01:18:47.266Z,65.96
2019-02-27T01:21:18.922Z,66.24
2019-02-27T01:23:47.867Z,66.59
2019-02-27T01:26:17.217Z,66.89
2019-02-27T01:28:46.867Z,67.12
2019-02-27T01:31:16.457Z,67.41
2019-02-27T01:33:45.836Z,67.69
2019-02-27T01:36:15.189Z,67.79
2019-02-27T01:38:45.170Z,67.72
2019-02-27T01:41:14.518Z,67.91
2019-02-27T01:43:44.129Z,68.12
2019-02-27T01:46:13.465Z,68.26
2019-02-27T01:48:43.881Z,68.34
2019-02-27T01:51:13.434Z,68.37
2019-02-27T01:53:43.165Z,68.39
2019-02-27T01:56:12.486Z,68.53
2019-02-27T01:58:44.126Z,68.63
2019-02-27T02:01:13.191Z,68.90
2019-02-27T02:03:47.299Z,68.92
2019-02-27T02:06:13.980Z,69.09
2019-02-27T02:08:47.814Z,69.07
2019-02-27T02:11:14.371Z,69.00
2019-02-27T02:13:53.073Z,68.78
2019-02-27T02:16:34.913Z,68.80
2019-02-27T02:19:22.026Z,68.85
2019-02-27T02:21:54.555Z,68.91
2019-02-27T02:24:36.354Z,68.96
2019-02-27T02:27:25.468Z,68.93
2019-02-27T02:29:58.505Z,68.92
2019-02-27T08:11:15.370Z,61.05
2019-02-27T08:13:44.738Z,60.22
2019-02-27T08:16:14.419Z,60.01
2019-02-27T08:18:43.785Z,58.54
2019-02-27T08:21:13.667Z,57.30
2019-02-27T08:23:43.342Z,57.34
2019-02-27T08:26:12.725Z,57.33
2019-02-27T08:28:42.638Z,58.02
2019-02-27T08:31:12.323Z,58.24
2019-02-27T08:33:41.768Z,59.07
2019-02-27T08:36:11.491Z,58.08
2019-02-27T08:38:40.879Z,58.05
2019-02-27T08:41:10.742Z,57.76
2019-02-27T08:43:41.871Z,56.25
2019-02-27T08:46:11.523Z,54.18
2019-02-27T08:48:40.910Z,53.92
2019-02-27T08:51:10.571Z,54.06
2019-02-27T08:53:40.844Z,53.77
2019-02-27T08:56:12.402Z,52.66
2019-02-27T08:58:41.824Z,51.10
2019-02-27T09:01:11.639Z,49.95
2019-02-27T09:03:41.265Z,49.47
2019-02-27T09:06:10.681Z,47.34
2019-02-27T09:08:44.079Z,47.25
2019-02-27T09:11:14.646Z,46.53
2019-02-27T09:13:43.941Z,45.97
2019-02-27T09:16:13.646Z,44.37
2019-02-27T09:18:44.144Z,43.65
2019-02-27T09:21:13.638Z,43.72
2019-02-27T09:24:37.981Z,42.88
2019-02-27T09:27:07.699Z,42.60
2019-02-27T09:29:37.061Z,42.02
2019-02-27T09:32:09.300Z,42.34
2019-02-27T09:34:37.783Z,41.84
2019-02-27T09:37:08.071Z,40.17
2019-02-27T09:39:38.096Z,39.47
2019-02-27T09:42:07.722Z,38.84
2019-02-27T09:44:37.278Z,39.04
2019-02-27T09:47:06.739Z,39.19
2019-02-27T09:49:38.060Z,39.07
2019-02-27T09:52:07.806Z,37.61
2019-02-27T09:54:37.170Z,37.44
2019-02-27T09:57:07.957Z,36.86
2019-02-27T09:59:37.314Z,36.82
2019-02-27T10:02:09.297Z,36.74
2019-02-27T10:04:37.886Z,36.85
2019-02-27T10:07:07.582Z,36.57
2019-02-27T10:09:36.959Z,34.99
2019-02-27T10:12:06.614Z,34.27
2019-02-27T10:14:36.032Z,33.78
2019-02-27T10:17:06.719Z,33.88
2019-02-27T10:19:36.904Z,34.12
2019-02-27T10:22:06.293Z,33.46
2019-02-27T10:24:36.895Z,32.91
2019-02-27T10:27:07.887Z,33.41
2019-02-27T10:29:37.250Z,34.07
2019-02-27T10:32:06.875Z,34.24
2019-02-27T10:34:36.359Z,34.54
2019-02-27T10:37:06.053Z,33.77
2019-02-27T10:39:37.050Z,33.79
2019-02-27T10:42:06.852Z,33.23
2019-02-27T10:44:36.219Z,33.26
2019-02-27T10:47:05.878Z,32.85
2019-02-27T10:49:35.244Z,32.47
2019-02-27T10:52:05.020Z,32.31
2019-02-27T10:54:36.975Z,32.19
2019-02-27T10:57:06.027Z,30.72
2019-02-27T10:59:35.725Z,30.89
2019-02-27T11:02:05.111Z,30.79
2019-02-27T11:04:36.342Z,30.78
2019-02-27T11:07:07.139Z,30.32
2019-02-27T11:09:38.359Z,30.52
2019-02-27T11:12:07.596Z,30.83
2019-02-27T11:14:37.246Z,30.60
2019-02-27T11:17:07.270Z,31.07
2019-02-27T11:19:36.648Z,30.73
2019-02-27T11:22:06.143Z,31.13
2019-02-27T11:24:35.528Z,32.17
2019-02-27T11:27:06.035Z,31.95
2019-02-27T11:29:37.287Z,32.41
2019-02-27T11:32:07.008Z,31.87
2019-02-27T11:34:36.372Z,31.78
2019-02-27T11:37:06.058Z,32.15
2019-02-27T11:39:35.423Z,32.05
2019-02-27T11:42:05.125Z,32.07
2019-02-27T11:44:34.538Z,31.87
2019-02-27T11:47:04.629Z,31.67
2019-02-27T11:49:36.272Z,32.12
2019-02-27T11:52:05.318Z,30.94
2019-02-27T11:54:34.677Z,31.26
2019-02-27T11:57:04.405Z,30.98
2019-02-27T11:59:34.110Z,30.82
2019-02-27T12:02:03.487Z,31.54
2019-02-27T12:04:33.156Z,30.78
2019-02-27T12:07:02.535Z,30.67
2019-02-27T12:09:35.119Z,30.84
2019-02-27T12:12:05.214Z,30.67
2019-02-27T12:14:34.932Z,30.80
2019-02-27T12:17:04.313Z,30.77
2019-02-27T12:19:33.682Z,30.63
2019-02-27T12:22:03.759Z,30.87
2019-02-27T12:24:33.568Z,31.22
2019-02-27T12:27:03.587Z,30.26
2019-02-27T12:29:33.253Z,30.22
2019-02-27T12:32:02.637Z,29.60
2019-02-27T12:34:34.026Z,29.24
2019-02-27T12:37:03.411Z,29.71
2019-02-27T12:39:32.763Z,29.79
2019-02-27T12:42:04.134Z,30.36
2019-02-27T12:44:34.560Z,30.48
2019-02-27T12:47:05.534Z,30.85
2019-02-27T12:49:35.502Z,30.26
2019-02-27T12:52:04.889Z,29.82
2019-02-27T12:54:34.460Z,29.61
2019-02-27T12:57:04.116Z,29.82
2019-02-27T12:59:33.662Z,30.03
2019-02-27T13:02:08.250Z,30.30
2019-02-27T13:04:34.585Z,30.39
2019-02-27T13:07:03.981Z,30.16
2019-02-27T13:09:33.413Z,30.54
2019-02-27T13:12:02.798Z,30.27
2019-02-27T13:14:33.263Z,30.09
2019-02-27T13:17:03.386Z,30.29
2019-02-27T13:19:32.780Z,29.39
2019-02-27T13:22:02.501Z,29.51
2019-02-27T13:24:32.161Z,30.00
2019-02-27T13:27:01.545Z,30.72
2019-02-27T13:29:31.280Z,30.39
2019-02-27T13:32:00.663Z,30.33
2019-02-27T13:34:30.592Z,30.02
2019-02-27T13:36:59.979Z,29.64
2019-02-27T13:39:29.593Z,30.16
2019-02-27T13:41:58.977Z,30.68
2019-02-27T13:44:28.824Z,30.43
2019-02-27T13:46:58.781Z,30.65
2019-02-27T13:49:28.397Z,31.41
2019-02-27T13:51:57.871Z,31.28
2019-02-27T13:54:27.597Z,31.28
2019-02-27T13:56:56.975Z,31.27
2019-02-27T13:59:26.574Z,31.10
2019-02-27T14:01:56.254Z,31.24
2019-02-27T14:04:27.095Z,30.73
2019-02-27T14:06:56.777Z,30.25
2019-02-27T14:09:26.140Z,30.34
2019-02-27T14:11:58.430Z,30.74
2019-02-27T14:14:26.906Z,29.95
2019-02-27T14:16:56.900Z,29.97
2019-02-27T14:19:26.654Z,29.12
2019-02-27T14:21:56.225Z,29.18
2019-02-27T14:24:25.729Z,29.66
2019-02-27T14:26:55.091Z,29.36
2019-02-27T14:29:28.973Z,29.06
2019-02-27T14:31:57.350Z,29.03
2019-02-27T14:34:27.448Z,29.79
2019-02-27T14:36:57.328Z,29.77
2019-02-27T14:39:29.428Z,29.39
2019-02-27T14:41:59.477Z,29.23
2019-02-27T14:44:31.478Z,29.19
2019-02-27T14:47:00.248Z,29.52
2019-02-27T14:49:29.858Z,29.91
2019-02-27T14:51:59.224Z,29.92
2019-02-27T14:54:29.178Z,29.82
2019-02-27T14:56:59.586Z,29.42
2019-02-27T14:59:31.278Z,29.31
2019-02-27T15:02:00.225Z,29.65
2019-02-27T15:04:32.347Z,30.29
2019-02-27T15:07:01.044Z,29.48
2019-02-27T15:09:30.477Z,29.29
2019-02-27T15:11:59.865Z,29.77
2019-02-27T15:14:31.092Z,29.25
2019-02-27T15:17:00.306Z,30.02
2019-02-27T15:19:30.732Z,30.21
2019-02-27T15:22:00.208Z,30.29
2019-02-27T15:24:31.937Z,30.37
2019-02-27T15:27:01.019Z,30.20
2019-02-27T15:29:30.467Z,30.25
2019-02-27T15:32:01.082Z,30.45
2019-02-27T15:34:31.030Z,30.84
2019-02-27T15:37:01.007Z,31.67
2019-02-27T15:39:31.475Z,31.93
2019-02-27T15:42:03.202Z,31.96
2019-02-27T15:44:34.497Z,31.34
2019-02-27T15:47:03.925Z,31.51
2019-02-27T15:49:34.379Z,31.69
2019-02-27T15:52:07.083Z,31.86
2019-02-27T15:54:35.145Z,31.88
2019-02-27T15:57:04.524Z,32.05
2019-02-27T15:59:34.335Z,32.48
2019-02-27T16:02:04.330Z,32.70
2019-02-27T16:04:33.692Z,32.49
2019-02-27T16:07:03.177Z,32.91
2019-02-27T16:09:32.627Z,32.87
2019-02-27T16:12:02.017Z,32.70
2019-02-27T16:14:32.476Z,33.16
2019-02-27T16:17:02.062Z,33.23
2019-02-27T16:19:32.503Z,33.83
2019-02-27T16:22:02.439Z,33.95
2019-02-27T16:24:32.097Z,34.25
2019-02-27T16:27:02.020Z,33.62
2019-02-27T16:29:31.404Z,34.31
2019-02-27T16:32:01.635Z,34.33
2019-02-27T16:34:33.232Z,34.67
2019-02-27T16:37:02.395Z,34.95
2019-02-27T16:39:32.260Z,35.54
2019-02-27T16:42:05.205Z,35.65
2019-02-27T16:44:33.291Z,36.13
2019-02-27T16:47:03.586Z,36.56
2019-02-27T16:49:34.311Z,36.87
2019-02-27T16:52:07.919Z,36.77
2019-02-27T16:54:34.728Z,37.15
2019-02-27T16:57:04.290Z,37.38
2019-02-27T16:59:33.948Z,37.71
2019-02-27T17:02:04.022Z,37.95
2019-02-27T17:04:34.908Z,38.12
2019-02-27T17:07:04.383Z,38.13
2019-02-27T17:09:33.745Z,38.30
2019-02-27T17:12:04.274Z,38.85
2019-02-27T17:14:34.378Z,39.24
2019-02-27T17:17:05.350Z,39.84
2019-02-27T17:19:36.536Z,40.11
2019-02-27T17:22:05.827Z,40.46
2019-02-27T17:24:35.326Z,40.83
2019-02-27T17:27:04.707Z,41.27
2019-02-27T17:29:34.633Z,41.68
2019-02-27T17:32:04.328Z,42.00
2019-02-27T17:34:35.406Z,42.37
2019-02-27T17:37:07.128Z,42.80
2019-02-27T17:39:36.521Z,43.22
2019-02-27T17:42:05.912Z,43.41
2019-02-27T17:44:37.897Z,43.75
2019-02-27T17:47:08.281Z,44.16
2019-02-27T17:49:37.626Z,44.59
2019-02-27T17:52:11.337Z,44.92
2019-02-27T17:54:38.893Z,45.02
2019-02-27T17:57:08.545Z,45.60
2019-02-27T17:59:39.121Z,46.03
2019-02-27T18:02:09.318Z,46.67
2019-02-27T18:04:39.450Z,47.05
2019-02-27T18:07:09.795Z,47.43
2019-02-27T18:09:40.464Z,47.77
2019-02-27T18:12:09.886Z,47.92
2019-02-27T18:14:43.900Z,48.13
2019-02-27T18:17:10.950Z,48.45
2019-02-27T18:19:40.603Z,48.45
2019-02-27T18:22:13.971Z,48.57
2019-02-27T18:24:43.221Z,48.31
2019-02-27T18:27:12.594Z,48.64
2019-02-27T18:29:43.706Z,49.03
2019-02-27T18:32:13.897Z,49.39
2019-02-27T18:34:43.553Z,49.16
2019-02-27T18:37:14.508Z,49.11
2019-02-27T18:39:44.014Z,49.16
2019-02-27T18:42:13.665Z,49.09
2019-02-27T18:44:43.046Z,49.06
2019-02-27T18:47:12.733Z,49.23
2019-02-27T18:49:42.959Z,49.40
2019-02-27T18:52:21.031Z,49.49
2019-02-27T18:54:43.778Z,49.60
2019-02-27T18:57:13.415Z,49.77
2019-02-27T18:59:43.073Z,49.93
2019-02-27T19:02:12.677Z,50.05
2019-02-27T19:04:43.040Z,50.20
2019-02-27T19:07:12.882Z,50.19
2019-02-27T19:09:43.098Z,50.00
2019-02-27T19:12:12.684Z,49.83
2019-02-27T19:14:43.014Z,49.59
2019-02-27T19:17:12.397Z,49.55
2019-02-27T19:54:02.841Z,50.49
2019-02-27T19:56:35.300Z,50.86
2019-02-27T19:59:03.338Z,51.32
2019-02-27T20:01:33.006Z,51.57
2019-02-27T20:04:02.396Z,51.82
2019-02-27T20:06:32.255Z,51.79
2019-02-27T20:09:02.001Z,51.63
2019-02-27T20:11:33.034Z,51.52
2019-02-27T20:14:03.226Z,51.53
2019-02-27T20:16:33.010Z,51.67
2019-02-27T20:19:02.459Z,51.81
2019-02-27T20:21:32.084Z,52.02
2019-02-27T20:24:02.420Z,52.19
2019-02-27T20:26:33.004Z,52.40
2019-02-27T20:29:04.172Z,52.56
2019-02-27T20:31:33.497Z,52.79
2019-02-27T20:34:03.103Z,53.11
2019-02-27T20:36:33.181Z,53.21
2019-02-27T20:39:04.567Z,53.44
2019-02-27T20:41:39.700Z,53.61
2019-02-27T20:44:06.939Z,53.62
2019-02-27T20:46:37.395Z,53.51
2019-02-27T20:49:07.073Z,53.61
2019-02-27T20:51:39.790Z,54.16
2019-02-27T20:54:07.516Z,54.38
2019-02-27T20:56:37.088Z,54.96
2019-02-27T20:59:06.474Z,54.96
2019-02-27T21:01:36.138Z,55.14
2019-02-27T21:04:05.542Z,55.19
2019-02-27T21:06:34.922Z,54.89
2019-02-27T21:09:10.942Z,55.16
2019-02-27T21:11:38.382Z,55.09
2019-02-27T21:14:08.063Z,55.07
2019-02-27T21:16:40.193Z,55.00
2019-02-27T21:19:09.344Z,54.95
2019-02-27T21:21:38.717Z,54.95
2019-02-27T21:24:08.364Z,54.93
2019-02-27T21:26:37.730Z,54.96
2019-02-27T21:29:08.860Z,55.73
2019-02-27T21:31:38.335Z,55.73
2019-02-27T21:34:07.739Z,55.69
2019-02-27T21:36:37.522Z,55.88
2019-02-27T21:39:07.223Z,56.02
2019-02-27T21:41:38.369Z,56.27
2019-02-27T21:44:07.759Z,56.30
2019-02-27T21:46:37.421Z,56.36
2019-02-27T21:49:06.809Z,56.34
2019-02-27T21:51:37.797Z,56.35
2019-02-27T21:54:07.342Z,56.29
2019-02-27T21:56:36.722Z,56.29
2019-02-27T21:59:06.380Z,56.73
2019-02-27T22:01:35.812Z,56.73
2019-02-27T22:04:05.472Z,56.16
2019-02-27T22:06:35.603Z,56.16
2019-02-27T22:09:05.859Z,56.51
2019-02-27T22:11:36.689Z,56.57
2019-02-27T22:14:06.407Z,56.52
2019-02-27T22:16:35.846Z,56.52
2019-02-27T22:19:06.479Z,56.85
2019-02-27T22:21:36.830Z,56.85
2019-02-27T22:24:07.487Z,57.59
2019-02-27T22:26:37.585Z,57.59
2019-02-27T22:29:07.717Z,57.57
2019-02-27T22:31:40.273Z,57.68
2019-02-27T22:34:08.598Z,58.28
2019-02-27T22:36:38.266Z,58.28
2019-02-27T22:39:10.805Z,58.14
2019-02-27T22:41:41.716Z,58.29
2019-02-27T22:44:12.451Z,58.77
2019-02-27T22:46:43.770Z,58.77
2019-02-27T22:49:13.454Z,58.82
2019-02-27T22:51:44.862Z,59.38
2019-02-27T22:54:14.912Z,59.53
2019-02-27T22:56:49.985Z,59.60
2019-02-27T22:59:15.663Z,59.63
2019-02-27T23:01:49.310Z,59.78
2019-02-27T23:04:17.468Z,59.89
2019-02-27T23:06:47.886Z,61.15
2019-02-27T23:09:18.046Z,60.95
2019-02-27T23:11:47.855Z,60.95
2019-02-27T23:14:18.824Z,61.83
2019-02-27T23:16:49.208Z,62.11
2019-02-27T23:19:19.003Z,62.23
2019-02-27T23:21:48.679Z,62.49
2019-02-27T23:24:18.073Z,62.58
2019-02-27T23:26:47.869Z,62.64
2019-02-27T23:29:17.588Z,63.15
2019-02-27T23:31:47.510Z,63.15
2019-02-27T23:34:16.896Z,63.08
2019-02-27T23:36:46.565Z,63.69
2019-02-27T23:39:15.952Z,64.18
2019-02-27T23:41:45.885Z,64.48
2019-02-27T23:44:15.575Z,64.48
2019-02-27T23:46:49.743Z,64.83
2019-02-27T23:49:17.288Z,65.15
2019-02-27T23:51:48.563Z,65.36
2019-02-27T23:54:19.208Z,65.62
2019-02-27T23:56:51.839Z,66.23
2019-02-27T23:59:19.949Z,66.63
